KCEZ

Cortez Municipal Airport

Cortez, Colorado, USA
METAR KCEZ 180253Z AUTO 08008KT 10SM CLR M06/M16 A3010 RMK AO2 SLP223 T10561161 53025
Observed Flight Rules
Dec-18 @ 02:53 UTC (20 minutes ago) Visual Flight Rules
Wind Visibility Clouds
80° at 8 knots 10 miles
  • Clear skies
Temperatures Readings
Current -6°C / 21°F
Dewpoint -16°C / 3°F
Humidity 45%
Altimeter 30.1" Hg
Pressure 1022.3 hPa
Elevation 1797
METAR KCEZ 180253Z AUTO 08008KT 10SM CLR M06/M16 A3010 RMK AO2 SLP223 T10561161 53025
Observed Flight Rules
Dec-18 @ 02:53 UTC
(20 minutes ago)
VFR
Wind Visibility
80° at 8 knots 10 miles
Clouds
  • Clear skies
Temperature Dewpoint
-6°C / 21°F -16°C / 3°F
Humidity Altimeter Pressure
45% 30.1" Hg 1022.3 hPa